createdAt,value
2019-03-26T00:00:36.686Z,101544.33
2019-03-26T00:03:09.208Z,101548.70
2019-03-26T00:05:41.705Z,101546.55
2019-03-26T00:08:14.137Z,101544.80
2019-03-26T00:10:46.572Z,101550.88
2019-03-26T00:13:19.029Z,101551.74
2019-03-26T00:15:51.859Z,101552.20
2019-03-26T00:18:24.307Z,101550.02
2019-03-26T00:20:57.322Z,101542.20
2019-03-26T00:23:29.994Z,101548.72
2019-03-26T00:26:02.525Z,101548.32
2019-03-26T00:28:34.941Z,101551.35
2019-03-26T00:31:07.366Z,101555.70
2019-03-26T00:33:40.122Z,101545.28
2019-03-26T00:36:12.646Z,101553.97
2019-03-26T00:38:45.142Z,101546.57
2019-03-26T00:41:17.681Z,101548.31
2019-03-26T00:43:50.099Z,101545.73
2019-03-26T00:46:22.534Z,101550.94
2019-03-26T00:48:55.127Z,101553.54
2019-03-26T00:51:27.589Z,101560.91
2019-03-26T00:54:00.099Z,101557.86
2019-03-26T00:56:32.953Z,101570.44
2019-03-26T00:59:05.386Z,101560.48
2019-03-26T01:01:38.088Z,101575.20
2019-03-26T01:04:10.620Z,101578.70
2019-03-26T01:06:43.052Z,101573.91
2019-03-26T01:09:15.475Z,101577.38
2019-03-26T01:11:47.897Z,101586.07
2019-03-26T01:14:20.380Z,101585.19
2019-03-26T01:16:53.031Z,101590.84
2019-03-26T01:19:25.497Z,101595.18
2019-03-26T01:21:57.969Z,101596.89
2019-03-26T01:24:30.409Z,101598.64
2019-03-26T01:27:02.825Z,101600.80
2019-03-26T01:29:35.227Z,101603.39
2019-03-26T01:32:07.980Z,101606.42
2019-03-26T01:34:45.875Z,101609.89
2019-03-26T01:37:14.626Z,101609.03
2019-03-26T01:39:47.200Z,101613.37
2019-03-26T01:42:19.679Z,101618.16
2019-03-26T01:44:52.126Z,101614.27
2019-03-26T01:47:24.714Z,101614.69
2019-03-26T01:49:57.203Z,101622.52
2019-03-26T01:52:29.739Z,101625.53
2019-03-26T01:55:02.256Z,101625.97
2019-03-26T01:57:34.741Z,101631.60
2019-03-26T02:00:07.702Z,101626.41
2019-03-26T02:02:40.228Z,101637.23
2019-03-26T02:05:12.643Z,101630.74
2019-03-26T02:07:45.533Z,101633.77
2019-03-26T02:10:18.163Z,101646.36
2019-03-26T02:12:50.879Z,101641.15
2019-03-26T02:15:31.243Z,101638.57
2019-03-26T02:18:04.322Z,101637.68
2019-03-26T02:20:36.794Z,101631.60
2019-03-26T02:23:09.315Z,101633.34
2019-03-26T02:25:41.816Z,101640.28
2019-03-26T02:28:14.396Z,101624.23
2019-03-26T02:30:46.797Z,101634.22
2019-03-26T02:33:19.326Z,101639.42
2019-03-26T02:35:51.816Z,101634.66
2019-03-26T02:38:24.364Z,101635.51
2019-03-26T02:40:56.777Z,101632.06
2019-03-26T02:43:29.151Z,101639.43
2019-03-26T02:46:01.839Z,101642.02
2019-03-26T02:48:34.287Z,101643.76
2019-03-26T02:51:06.977Z,101632.48
2019-03-26T02:53:39.433Z,101629.00
2019-03-26T02:56:11.943Z,101633.34
2019-03-26T02:58:45.509Z,101639.86
2019-03-26T03:01:18.011Z,101643.75
2019-03-26T03:03:50.469Z,101640.28
2019-03-26T03:06:22.962Z,101643.34
2019-03-26T03:08:55.383Z,101646.81
2019-03-26T03:11:27.814Z,101648.52
2019-03-26T03:14:00.265Z,101654.61
2019-03-26T03:16:32.767Z,101659.36
2019-03-26T03:19:05.159Z,101653.72
2019-03-26T03:21:37.714Z,101660.23
2019-03-26T03:24:10.269Z,101657.20
2019-03-26T03:26:42.675Z,101661.98
2019-03-26T03:29:15.079Z,101653.73
2019-03-26T03:36:52.270Z,101658.08
2019-03-26T03:39:24.716Z,101658.97
2019-03-26T03:41:57.136Z,101659.83
2019-03-26T03:44:29.661Z,101653.75
2019-03-26T03:47:04.253Z,101658.52
2019-03-26T03:49:36.889Z,101663.73
2019-03-26T03:52:10.522Z,101659.83
2019-03-26T03:54:45.879Z,101660.24
2019-03-26T03:57:20.058Z,101667.67
2019-03-26T03:59:53.350Z,101662.88
2019-03-26T04:02:25.842Z,101667.67
2019-03-26T04:04:58.229Z,101675.91
2019-03-26T04:07:30.661Z,101673.69
2019-03-26T04:10:03.029Z,101677.62
2019-03-26T04:12:35.569Z,101678.05
2019-03-26T04:15:08.695Z,101682.39
2019-03-26T04:17:41.281Z,101679.34
2019-03-26T04:20:13.710Z,101678.46
2019-03-26T04:22:46.112Z,101681.06
2019-03-26T04:25:18.699Z,101688.02
2019-03-26T04:27:51.199Z,101690.61
2019-03-26T04:30:30.889Z,101691.05
2019-03-26T04:33:03.408Z,101698.87
2019-03-26T04:35:35.804Z,101701.47
2019-03-26T04:38:08.235Z,101700.61
2019-03-26T04:40:40.598Z,101691.92
2019-03-26T04:43:13.416Z,101697.14
2019-03-26T04:45:45.823Z,101702.34
2019-03-26T04:48:18.338Z,101715.84
2019-03-26T04:50:51.976Z,101721.05
2019-03-26T04:53:24.641Z,101715.36
2019-03-26T04:55:57.033Z,101715.83
2019-03-26T04:58:29.455Z,101719.70
2019-03-26T05:01:01.940Z,101716.22
2019-03-26T05:03:34.659Z,101714.92
2019-03-26T05:06:07.214Z,101723.19
2019-03-26T05:08:39.650Z,101724.48
2019-03-26T05:11:12.206Z,101728.81
2019-03-26T05:13:46.047Z,101728.38
2019-03-26T05:16:18.581Z,101727.51
2019-03-26T05:18:51.012Z,101729.68
2019-03-26T05:21:23.862Z,101730.10
2019-03-26T05:23:56.284Z,101730.56
2019-03-26T05:26:28.722Z,101735.75
2019-03-26T05:29:01.213Z,101741.84
2019-03-26T05:36:50.368Z,101748.33
2019-03-26T05:39:12.163Z,101753.11
2019-03-26T05:41:45.799Z,101745.31
2019-03-26T05:44:18.807Z,101759.20
2019-03-26T05:46:51.537Z,101754.86
2019-03-26T05:49:24.117Z,101759.20
2019-03-26T05:51:56.586Z,101758.78
2019-03-26T05:54:29.315Z,101767.88
2019-03-26T05:57:01.753Z,101768.31
2019-03-26T05:59:34.306Z,101774.81
2019-03-26T06:02:14.214Z,101781.30
2019-03-26T06:04:40.945Z,101786.97
2019-03-26T06:07:13.408Z,101786.95
2019-03-26T06:09:45.868Z,101783.52
2019-03-26T06:12:18.309Z,101790.89
2019-03-26T06:14:50.966Z,101793.55
2019-03-26T06:17:23.542Z,101793.97
2019-03-26T06:19:56.023Z,101796.58
2019-03-26T06:22:28.429Z,101798.77
2019-03-26T06:25:01.267Z,101796.16
2019-03-26T06:27:33.686Z,101791.41
2019-03-26T06:30:07.319Z,101798.80
2019-03-26T06:32:40.018Z,101799.64
2019-03-26T06:35:12.432Z,101796.59
2019-03-26T06:37:46.074Z,101799.65
2019-03-26T06:40:18.843Z,101800.95
2019-03-26T06:47:55.826Z,101803.55
2019-03-26T06:50:28.718Z,101800.05
2019-03-26T06:53:01.306Z,101806.58
2019-03-26T06:55:33.755Z,101803.95
2019-03-26T06:58:06.569Z,101810.91
2019-03-26T07:00:38.995Z,101807.43
2019-03-26T07:03:11.405Z,101800.91
2019-03-26T07:05:43.834Z,101800.05
2019-03-26T07:08:16.412Z,101806.56
2019-03-26T07:10:49.342Z,101815.25
2019-03-26T07:18:25.444Z,101826.08
2019-03-26T07:20:57.851Z,101827.81
2019-03-26T07:23:30.278Z,101833.00
2019-03-26T07:26:02.884Z,101832.55
2019-03-26T07:28:35.415Z,101830.80
2019-03-26T07:31:08.097Z,101827.28
2019-03-26T07:33:40.533Z,101830.72
2019-03-26T07:36:12.997Z,101823.73
2019-03-26T07:38:46.068Z,101833.23
2019-03-26T07:41:18.527Z,101835.38
2019-03-26T07:43:50.934Z,101828.86
2019-03-26T07:46:23.475Z,101821.86
2019-03-26T07:48:55.933Z,101816.64
2019-03-26T07:51:28.666Z,101810.51
2019-03-26T07:54:01.096Z,101805.69
2019-03-26T07:56:33.631Z,101802.59
2019-03-26T07:59:06.068Z,101807.39
2019-03-26T08:01:38.558Z,101811.27
2019-03-26T08:04:12.580Z,101816.06
2019-03-26T08:06:46.669Z,101817.77
2019-03-26T08:09:19.325Z,101825.58
2019-03-26T08:11:51.789Z,101825.06
2019-03-26T08:14:24.542Z,101832.00
2019-03-26T08:16:57.101Z,101834.14
2019-03-26T08:19:29.541Z,101839.77
2019-03-26T08:22:02.135Z,101844.95
2019-03-26T08:24:34.792Z,101844.95
2019-03-26T08:27:07.353Z,101844.95
2019-03-26T08:29:39.741Z,101849.74
2019-03-26T08:32:12.370Z,101848.00
2019-03-26T08:34:46.857Z,101851.45
2019-03-26T08:37:19.449Z,101847.09
2019-03-26T08:39:51.891Z,101857.47
2019-03-26T08:47:29.279Z,101849.33
2019-03-26T08:50:01.867Z,101851.88
2019-03-26T08:52:34.474Z,101853.96
2019-03-26T08:55:08.189Z,101846.81
2019-03-26T08:57:40.749Z,101852.34
2019-03-26T09:00:14.383Z,101853.02
2019-03-26T09:02:46.824Z,101852.87
2019-03-26T09:05:19.287Z,101851.86
2019-03-26T09:07:52.187Z,101849.55
2019-03-26T09:10:24.677Z,101850.42
2019-03-26T09:12:57.163Z,101843.94
2019-03-26T09:15:29.899Z,101848.65
2019-03-26T09:18:02.384Z,101851.22
2019-03-26T09:20:34.865Z,101852.03
2019-03-26T09:23:07.894Z,101855.89
2019-03-26T09:25:40.493Z,101858.86
2019-03-26T09:28:12.965Z,101851.35
2019-03-26T09:30:46.437Z,101847.27
2019-03-26T09:33:19.295Z,101848.04
2019-03-26T09:35:51.914Z,101850.94
2019-03-26T09:38:37.935Z,101852.09
2019-03-26T09:40:58.814Z,101859.88
2019-03-26T09:43:31.271Z,101861.56
2019-03-26T09:46:03.830Z,101851.03
2019-03-26T09:48:36.644Z,101863.19
2019-03-26T09:51:10.778Z,101862.67
2019-03-26T09:53:43.750Z,101857.80
2019-03-26T09:56:28.344Z,101862.17
2019-03-26T09:58:51.086Z,101867.42
2019-03-26T10:01:23.536Z,101865.30
2019-03-26T10:03:55.935Z,101872.75
2019-03-26T10:06:28.407Z,101869.23
2019-03-26T10:09:30.392Z,101875.82
2019-03-26T10:12:02.841Z,101880.10
2019-03-26T10:14:35.289Z,101879.58
2019-03-26T10:17:07.826Z,101880.73
2019-03-26T10:19:40.289Z,101872.38
2019-03-26T10:22:12.904Z,101871.87
2019-03-26T10:24:47.040Z,101872.65
2019-03-26T10:27:19.576Z,101876.48
2019-03-26T10:29:52.045Z,101879.11
2019-03-26T10:32:24.528Z,101884.83
2019-03-26T10:34:57.066Z,101876.84
2019-03-26T10:37:29.978Z,101875.77
2019-03-26T10:40:04.540Z,101875.56
2019-03-26T10:42:37.354Z,101875.36
2019-03-26T10:45:10.897Z,101867.34
2019-03-26T10:47:43.416Z,101872.17
2019-03-26T10:50:16.269Z,101864.84
2019-03-26T10:52:48.879Z,101862.23
2019-03-26T10:55:21.354Z,101865.73
2019-03-26T10:57:54.204Z,101870.56
2019-03-26T11:00:27.013Z,101863.16
2019-03-26T11:02:59.591Z,101865.46
2019-03-26T11:05:32.122Z,101866.00
2019-03-26T11:08:04.608Z,101863.52
2019-03-26T11:10:37.109Z,101863.19
2019-03-26T11:13:10.003Z,101858.47
2019-03-26T11:15:42.450Z,101855.05
2019-03-26T11:18:14.924Z,101853.75
2019-03-26T11:20:47.378Z,101852.05
2019-03-26T11:23:20.463Z,101849.77
2019-03-26T11:25:52.967Z,101848.35
2019-03-26T11:28:25.842Z,101845.13
2019-03-26T11:30:58.327Z,101848.07
2019-03-26T11:33:30.789Z,101843.67
2019-03-26T11:36:03.274Z,101837.98
2019-03-26T11:38:35.733Z,101830.92
2019-03-26T11:41:08.157Z,101832.17
2019-03-26T11:43:41.369Z,101828.15
2019-03-26T11:46:13.851Z,101830.44
2019-03-26T11:48:46.747Z,101835.69
2019-03-26T11:51:19.405Z,101829.77
2019-03-26T11:53:51.925Z,101833.33
2019-03-26T11:56:24.414Z,101819.93
2019-03-26T11:58:57.573Z,101824.06
2019-03-26T12:01:30.692Z,101815.98
2019-03-26T12:04:04.740Z,101829.11
2019-03-26T12:06:37.217Z,101820.88
2019-03-26T12:09:10.407Z,101820.92
2019-03-26T12:11:43.084Z,101824.53
2019-03-26T12:14:16.250Z,101815.94
2019-03-26T12:16:48.921Z,101810.75
2019-03-26T12:19:22.085Z,101803.03
2019-03-26T12:21:54.498Z,101809.65
2019-03-26T12:24:26.971Z,101809.23
2019-03-26T12:26:59.440Z,101809.20
2019-03-26T12:29:32.623Z,101805.69
2019-03-26T12:32:05.328Z,101802.16
2019-03-26T12:34:38.040Z,101804.70
2019-03-26T12:37:10.508Z,101801.05
2019-03-26T12:39:58.617Z,101799.55
2019-03-26T12:42:21.565Z,101795.91
2019-03-26T12:44:54.871Z,101798.00
2019-03-26T12:47:27.475Z,101795.23
2019-03-26T12:50:00.651Z,101802.05
2019-03-26T12:52:33.313Z,101799.70
2019-03-26T12:55:05.935Z,101789.59
2019-03-26T12:57:38.502Z,101792.28
2019-03-26T13:00:11.424Z,101775.24
2019-03-26T13:02:44.360Z,101786.63
2019-03-26T13:05:16.898Z,101781.28
2019-03-26T13:07:49.784Z,101781.59
2019-03-26T13:15:01.480Z,101782.34
2019-03-26T13:17:33.919Z,101776.98
2019-03-26T13:20:07.487Z,101772.98
2019-03-26T13:22:40.270Z,101773.55
2019-03-26T13:25:12.828Z,101774.11
2019-03-26T13:27:45.406Z,101769.30
2019-03-26T13:30:19.709Z,101772.70
2019-03-26T13:32:52.172Z,101780.18
2019-03-26T13:35:24.707Z,101773.58
2019-03-26T13:37:57.908Z,101769.57
2019-03-26T13:40:30.344Z,101758.41
2019-03-26T13:43:02.952Z,101760.17
2019-03-26T13:45:35.392Z,101759.81
2019-03-26T13:48:07.864Z,101759.70
2019-03-26T13:50:40.415Z,101752.58
2019-03-26T13:53:13.561Z,101763.38
2019-03-26T13:55:47.201Z,101760.05
2019-03-26T13:58:19.650Z,101758.29
2019-03-26T14:00:52.140Z,101740.33
2019-03-26T14:03:24.606Z,101739.45
2019-03-26T14:05:57.103Z,101745.05
2019-03-26T14:08:30.284Z,101749.13
2019-03-26T14:11:02.721Z,101741.81
2019-03-26T14:13:35.330Z,101739.88
2019-03-26T14:16:07.760Z,101739.69
2019-03-26T14:18:40.265Z,101736.91
2019-03-26T14:21:12.925Z,101738.52
2019-03-26T14:23:46.058Z,101733.09
2019-03-26T14:26:18.499Z,101732.65
2019-03-26T14:28:51.356Z,101733.64
2019-03-26T14:31:23.901Z,101731.52
2019-03-26T14:33:56.423Z,101738.09
2019-03-26T14:36:28.977Z,101738.04
2019-03-26T14:39:01.492Z,101738.78
2019-03-26T14:41:34.084Z,101735.57
2019-03-26T14:44:06.707Z,101743.83
2019-03-26T14:46:39.799Z,101740.84
2019-03-26T14:49:12.244Z,101740.61
2019-03-26T14:51:44.877Z,101745.13
2019-03-26T14:54:17.414Z,101744.48
2019-03-26T14:56:49.994Z,101746.48
2019-03-26T14:59:22.489Z,101749.35
2019-03-26T15:01:55.333Z,101748.66
2019-03-26T15:04:27.800Z,101739.59
2019-03-26T15:07:00.453Z,101740.48
2019-03-26T15:09:32.940Z,101741.30
2019-03-26T15:12:05.529Z,101749.97
2019-03-26T15:14:38.186Z,101746.80
2019-03-26T15:17:11.120Z,101748.98
2019-03-26T15:19:43.568Z,101740.64
2019-03-26T15:22:16.058Z,101745.13
2019-03-26T15:24:48.642Z,101748.77
2019-03-26T15:27:21.183Z,101744.94
2019-03-26T15:29:53.666Z,101738.03
2019-03-26T15:32:27.161Z,101744.66
2019-03-26T15:34:59.641Z,101738.59
2019-03-26T15:37:32.956Z,101736.44
2019-03-26T15:40:05.914Z,101740.38
2019-03-26T15:42:38.405Z,101743.85
2019-03-26T15:45:11.368Z,101745.50
2019-03-26T15:47:44.486Z,101743.30
2019-03-26T15:50:36.925Z,101733.19
2019-03-26T15:53:11.706Z,101741.89
2019-03-26T15:55:44.636Z,101743.19
2019-03-26T15:58:17.198Z,101741.78
2019-03-26T16:00:49.666Z,101748.33
2019-03-26T16:03:22.958Z,101746.14
2019-03-26T16:05:55.432Z,101749.25
2019-03-26T16:08:28.053Z,101748.37
2019-03-26T16:11:00.614Z,101747.06
2019-03-26T16:13:35.743Z,101746.25
2019-03-26T16:16:07.386Z,101742.75
2019-03-26T16:18:40.598Z,101741.44
2019-03-26T16:21:13.183Z,101741.44
2019-03-26T16:23:45.695Z,101739.80
2019-03-26T16:26:20.616Z,101744.16
2019-03-26T16:28:52.403Z,101741.89
2019-03-26T16:31:24.918Z,101741.89
2019-03-26T16:33:58.192Z,101745.39
2019-03-26T16:36:30.818Z,101738.81
2019-03-26T16:39:04.637Z,101738.45
2019-03-26T16:41:48.369Z,101735.94
2019-03-26T16:44:11.495Z,101735.09
2019-03-26T16:46:44.122Z,101738.17
2019-03-26T16:49:17.315Z,101739.94
2019-03-26T16:51:50.734Z,101746.06
2019-03-26T16:54:23.262Z,101748.36
2019-03-26T16:56:56.486Z,101749.34
2019-03-26T16:59:29.245Z,101749.41
2019-03-26T17:02:01.978Z,101747.34
2019-03-26T17:04:35.558Z,101749.69
2019-03-26T17:07:08.077Z,101753.31
2019-03-26T17:09:40.563Z,101751.24
2019-03-26T17:12:13.105Z,101743.52
2019-03-26T17:14:45.717Z,101746.72
2019-03-26T17:17:18.176Z,101746.39
2019-03-26T17:19:51.401Z,101746.52
2019-03-26T17:22:24.047Z,101747.05
2019-03-26T17:24:56.561Z,101749.30
2019-03-26T17:27:29.326Z,101746.30
2019-03-26T17:30:02.132Z,101743.77
2019-03-26T17:32:34.679Z,101750.86
2019-03-26T17:35:09.228Z,101748.81
2019-03-26T17:37:41.674Z,101751.63
2019-03-26T17:40:14.155Z,101751.39
2019-03-26T17:42:46.628Z,101755.05
2019-03-26T17:45:19.155Z,101752.95
2019-03-26T17:47:51.661Z,101760.06
2019-03-26T17:50:24.841Z,101753.18
2019-03-26T17:52:57.412Z,101751.16
2019-03-26T17:55:30.303Z,101755.63
2019-03-26T17:58:02.841Z,101752.24
2019-03-26T18:00:48.773Z,101765.06
2019-03-26T18:03:26.703Z,101772.17
2019-03-26T18:05:56.147Z,101766.19
2019-03-26T18:08:28.716Z,101764.48
2019-03-26T18:11:01.331Z,101765.41
2019-03-26T18:13:33.803Z,101770.68
2019-03-26T18:16:06.633Z,101774.69
2019-03-26T18:18:39.103Z,101778.67
2019-03-26T18:21:12.243Z,101780.84
2019-03-26T18:23:44.818Z,101783.47
2019-03-26T18:26:17.348Z,101786.47
2019-03-26T18:28:49.907Z,101782.95
2019-03-26T18:31:22.576Z,101784.27
2019-03-26T18:33:55.047Z,101781.59
2019-03-26T18:36:28.373Z,101786.40
2019-03-26T18:39:00.927Z,101791.64
2019-03-26T18:41:33.626Z,101795.22
2019-03-26T18:44:06.157Z,101795.06
2019-03-26T18:46:38.639Z,101795.23
2019-03-26T18:49:11.189Z,101798.84
2019-03-26T18:51:43.785Z,101799.80
2019-03-26T18:54:16.941Z,101797.64
2019-03-26T18:56:49.630Z,101792.98
2019-03-26T18:59:22.265Z,101799.99
2019-03-26T19:01:54.829Z,101807.00
2019-03-26T19:04:27.444Z,101808.77
2019-03-26T19:07:00.041Z,101804.86
2019-03-26T19:09:34.652Z,101814.89
2019-03-26T19:12:07.240Z,101810.09
2019-03-26T19:14:39.976Z,101815.77
2019-03-26T19:17:12.754Z,101816.64
2019-03-26T19:19:48.348Z,101818.38
2019-03-26T19:22:20.872Z,101817.12
2019-03-26T19:24:53.545Z,101814.94
2019-03-26T19:27:26.077Z,101816.69
2019-03-26T19:29:58.640Z,101813.25
2019-03-26T19:32:31.246Z,101821.98
2019-03-26T19:35:03.827Z,101816.74
2019-03-26T19:37:36.349Z,101821.13
2019-03-26T19:40:10.024Z,101820.31
2019-03-26T19:42:42.534Z,101819.48
2019-03-26T19:45:15.272Z,101823.41
2019-03-26T19:47:48.859Z,101825.98
2019-03-26T19:50:21.719Z,101824.67
2019-03-26T19:52:54.362Z,101826.42
2019-03-26T19:55:27.011Z,101829.53
2019-03-26T19:57:59.544Z,101830.94
2019-03-26T20:00:32.102Z,101828.77
2019-03-26T20:03:04.744Z,101828.77
2019-03-26T20:05:37.310Z,101830.56
2019-03-26T20:08:10.234Z,101824.07
2019-03-26T20:10:43.098Z,101819.76
2019-03-26T20:13:24.148Z,101823.25
2019-03-26T20:15:50.030Z,101821.52
2019-03-26T20:18:25.289Z,101824.61
2019-03-26T20:20:57.908Z,101821.56
2019-03-26T20:23:30.372Z,101821.08
2019-03-26T20:26:03.326Z,101821.52
2019-03-26T20:28:35.882Z,101826.31
2019-03-26T20:31:08.431Z,101829.41
2019-03-26T20:33:42.557Z,101829.41
2019-03-26T20:36:15.474Z,101829.84
2019-03-26T20:38:51.422Z,101834.21
2019-03-26T20:41:23.526Z,101830.28
2019-03-26T20:43:56.330Z,101830.72
2019-03-26T20:46:29.003Z,101841.62
2019-03-26T20:49:01.525Z,101842.48
2019-03-26T20:51:34.222Z,101844.68
2019-03-26T20:54:06.732Z,101847.39
2019-03-26T20:56:40.945Z,101844.47
2019-03-26T20:59:14.316Z,101841.50
2019-03-26T21:01:46.882Z,101845.07
2019-03-26T21:04:19.470Z,101842.06
2019-03-26T21:06:52.018Z,101843.87
2019-03-26T21:09:24.492Z,101843.44
2019-03-26T21:11:56.985Z,101848.70
2019-03-26T21:14:29.670Z,101855.27
2019-03-26T21:17:02.448Z,101853.16
2019-03-26T21:19:35.230Z,101853.18
2019-03-26T21:22:07.874Z,101858.47
2019-03-26T21:24:40.325Z,101855.41
2019-03-26T21:27:12.803Z,101857.61
2019-03-26T21:29:45.475Z,101858.94
2019-03-26T21:32:17.913Z,101858.95
2019-03-26T21:34:50.483Z,101869.43
2019-03-26T21:37:23.311Z,101875.95
2019-03-26T21:39:55.940Z,101870.31
2019-03-26T21:42:28.372Z,101866.86
2019-03-26T21:45:00.979Z,101866.44
2019-03-26T21:47:33.656Z,101871.22
2019-03-26T21:50:07.444Z,101874.27
2019-03-26T21:52:40.058Z,101871.22
2019-03-26T21:55:13.530Z,101872.11
2019-03-26T21:57:46.210Z,101878.22
2019-03-26T22:00:19.326Z,101879.11
2019-03-26T22:02:52.037Z,101880.39
2019-03-26T22:05:24.573Z,101883.02
2019-03-26T22:07:57.021Z,101881.72
2019-03-26T22:10:29.498Z,101888.70
2019-03-26T22:13:02.018Z,101893.04
2019-03-26T22:15:34.726Z,101889.12
2019-03-26T22:18:07.212Z,101881.75
2019-03-26T22:20:39.758Z,101887.40
2019-03-26T22:23:12.323Z,101889.13
2019-03-26T22:25:44.995Z,101891.75
2019-03-26T22:28:17.497Z,101897.84
2019-03-26T22:30:50.130Z,101894.77
2019-03-26T22:33:22.570Z,101900.00
2019-03-26T22:35:56.201Z,101898.26
2019-03-26T22:38:28.848Z,101896.95
2019-03-26T22:41:01.385Z,101898.25
2019-03-26T22:43:33.924Z,101901.31
2019-03-26T22:46:06.678Z,101895.65
2019-03-26T22:48:39.137Z,101895.24
2019-03-26T22:51:11.781Z,101896.08
2019-03-26T22:53:44.639Z,101894.78
2019-03-26T22:56:17.174Z,101893.93
2019-03-26T22:58:49.615Z,101890.42
2019-03-26T23:01:22.171Z,101893.02
2019-03-26T23:03:54.563Z,101892.14
2019-03-26T23:06:27.110Z,101884.33
2019-03-26T23:08:59.659Z,101879.54
2019-03-26T23:11:32.329Z,101885.19
2019-03-26T23:14:04.808Z,101887.37
2019-03-26T23:16:37.493Z,101883.88
2019-03-26T23:19:10.254Z,101893.02
2019-03-26T23:21:42.719Z,101889.98
2019-03-26T23:24:15.227Z,101891.71
2019-03-26T23:26:47.708Z,101890.80
2019-03-26T23:29:20.477Z,101892.97
2019-03-26T23:31:54.083Z,101891.63
2019-03-26T23:34:26.742Z,101892.48
2019-03-26T23:36:59.259Z,101893.30
2019-03-26T23:39:31.754Z,101887.66
2019-03-26T23:42:04.222Z,101888.08
2019-03-26T23:44:36.724Z,101888.52
2019-03-26T23:47:09.161Z,101891.57
2019-03-26T23:49:41.716Z,101891.57
2019-03-26T23:52:14.793Z,101895.05
2019-03-26T23:54:47.283Z,101892.45
2019-03-26T23:57:19.634Z,101893.34
2019-03-26T23:59:52.057Z,101888.14
